アイウン の空港の天気 - METARとTAF

アイウン/ハッサン空港 ( GMML / EUN ) - 西サハラ アイウン
飛行場実況気象(Metar)
観測時間04/25 15:00 WEST (04/25 14:00 UTC)
風向・風速北北東 10m/s
視程8000m
天気現象
全天の8割程度の雲 雲底高度 910m
気温23℃
湿度53%
気圧1019hPa
METARGMML 251400Z 02019KT 8000 BKN030 23/13 Q1019 NOSIG
過去の天気等 Google飛行場航空写真 Wunderground天気予報

過去48時間のMETAR

飛行場予報(TAF)
発表時間: 4/25 12:00 WEST (4/25 11:00 UTC)
予報対象時間: 25日13時 WEST ~ 26日19時 WEST
風向・風速北 9m/s
視程8,000m
全天の8割程度の雲 雲底高度 820m
TAF GMML 251100Z 2512/2618 36018KT 8000 BKN027